createdAt,value
2023-02-05T00:00:46.916Z,13.88
2023-02-05T00:04:48.886Z,13.93
2023-02-05T00:08:50.601Z,11.80
2023-02-05T00:12:52.438Z,15.38
2023-02-05T00:16:54.378Z,16.52
2023-02-05T00:20:56.091Z,19.77
2023-02-05T00:24:57.531Z,15.52
2023-02-05T00:28:59.193Z,16.50
2023-02-05T00:33:01.938Z,11.73
2023-02-05T00:37:03.821Z,12.80
2023-02-05T00:41:06.261Z,10.18
2023-02-05T00:45:08.508Z,18.10
2023-02-05T00:49:09.909Z,14.68
2023-02-05T00:53:11.350Z,10.15
2023-02-05T00:57:13.076Z,11.93
2023-02-05T01:01:15.495Z,8.55
2023-02-05T01:05:17.076Z,12.43
2023-02-05T01:09:18.823Z,9.98
2023-02-05T01:13:20.590Z,14.90
2023-02-05T01:17:22.098Z,13.20
2023-02-05T01:21:25.203Z,10.00
2023-02-05T01:25:26.615Z,10.82
2023-02-05T01:29:29.392Z,12.13
2023-02-05T01:33:31.171Z,17.42
2023-02-05T01:37:32.607Z,7.72
2023-02-05T01:41:35.462Z,10.73
2023-02-05T01:45:55.417Z,8.23
2023-02-05T01:49:57.652Z,10.30
2023-02-05T01:53:59.614Z,15.48
2023-02-05T01:58:01.678Z,8.57
2023-02-05T02:02:08.189Z,12.35
2023-02-05T02:06:09.869Z,12.57
2023-02-05T02:10:14.821Z,12.15
2023-02-05T02:14:16.431Z,11.80
2023-02-05T02:18:28.287Z,15.98
2023-02-05T02:22:55.315Z,11.15
2023-02-05T02:27:11.624Z,11.55
2023-02-05T02:31:22.750Z,14.77
2023-02-05T02:35:47.896Z,11.05
2023-02-05T02:40:00.973Z,11.48
2023-02-05T02:44:09.799Z,12.82
2023-02-05T02:48:11.848Z,11.20
2023-02-05T02:52:16.203Z,11.20
2023-02-05T02:56:19.303Z,17.52
2023-02-05T03:00:26.344Z,11.73
2023-02-05T03:04:31.417Z,13.32
2023-02-05T03:08:39.157Z,14.38
2023-02-05T03:12:40.601Z,15.52
2023-02-05T03:16:42.125Z,15.45
2023-02-05T03:20:54.568Z,17.90
2023-02-05T03:24:56.300Z,15.00
2023-02-05T03:29:01.072Z,13.48
2023-02-05T03:33:05.513Z,20.58
2023-02-05T03:37:40.053Z,14.93
2023-02-05T03:41:59.593Z,15.50
2023-02-05T03:46:29.442Z,16.63
2023-02-05T03:50:41.376Z,19.10
2023-02-05T03:55:03.232Z,14.52
2023-02-05T03:59:05.723Z,18.42
2023-02-05T04:03:07.390Z,20.55
2023-02-05T04:07:09.562Z,15.48
2023-02-05T04:11:11.232Z,16.63
2023-02-05T04:15:12.989Z,14.43
2023-02-05T04:19:14.549Z,15.48
2023-02-05T04:23:15.997Z,17.50
2023-02-05T04:27:17.847Z,19.05
2023-02-05T04:31:19.788Z,18.48
2023-02-05T04:35:21.505Z,17.00
2023-02-05T04:39:22.930Z,25.65
2023-02-05T04:43:24.726Z,15.05
2023-02-05T04:47:26.200Z,21.10
2023-02-05T04:51:27.636Z,16.95
2023-02-05T04:55:30.151Z,17.92
2023-02-05T04:59:31.981Z,18.13
2023-02-05T05:03:33.763Z,12.82
2023-02-05T05:07:35.235Z,16.27
2023-02-05T05:11:36.658Z,14.25
2023-02-05T05:15:38.456Z,18.95
2023-02-05T05:19:40.024Z,14.13
2023-02-05T05:23:41.531Z,22.52
2023-02-05T05:27:44.374Z,15.93
2023-02-05T05:31:46.118Z,15.68
2023-02-05T05:35:48.085Z,17.67
2023-02-05T05:40:08.706Z,14.13
2023-02-05T05:44:10.795Z,13.25
2023-02-05T05:48:12.449Z,19.58
2023-02-05T05:52:15.563Z,13.70
2023-02-05T05:56:17.547Z,15.60
2023-02-05T06:00:19.300Z,18.52
2023-02-05T06:04:20.891Z,15.07
2023-02-05T06:08:22.480Z,19.50
2023-02-05T06:12:24.314Z,17.00
2023-02-05T06:16:26.265Z,16.75
2023-02-05T06:20:28.121Z,21.10
2023-02-05T06:24:31.046Z,15.85
2023-02-05T06:28:32.850Z,18.70
2023-02-05T06:32:34.451Z,11.75
2023-02-05T06:36:36.124Z,15.98
2023-02-05T06:40:37.973Z,15.00
2023-02-05T06:44:39.387Z,16.40
2023-02-05T06:48:41.197Z,16.50
2023-02-05T06:52:42.943Z,17.33
2023-02-05T06:56:44.368Z,12.23
2023-02-05T07:00:45.758Z,13.30
2023-02-05T07:04:47.185Z,14.57
2023-02-05T07:08:49.647Z,17.33
2023-02-05T07:12:51.167Z,17.48
2023-02-05T07:16:52.571Z,19.58
2023-02-05T07:20:54.339Z,16.00
2023-02-05T07:24:56.160Z,16.83
2023-02-05T07:28:57.962Z,16.63
2023-02-05T07:33:01.095Z,15.40
2023-02-05T07:37:02.700Z,14.32
2023-02-05T07:41:07.640Z,13.75
2023-02-05T07:45:10.532Z,15.68
2023-02-05T07:49:12.001Z,16.27
2023-02-05T07:53:13.465Z,16.85
2023-02-05T07:57:14.865Z,17.20
2023-02-05T08:01:16.476Z,12.77
2023-02-05T08:05:19.005Z,16.73
2023-02-05T08:09:20.779Z,11.20
2023-02-05T08:13:22.414Z,15.20
2023-02-05T08:17:24.320Z,15.77
2023-02-05T08:21:25.859Z,13.35
2023-02-05T08:25:27.680Z,16.55
2023-02-05T08:29:29.192Z,12.77
2023-02-05T08:33:30.625Z,11.75
2023-02-05T08:37:32.662Z,23.70
2023-02-05T08:41:34.124Z,11.52
2023-02-05T08:45:36.413Z,15.32
2023-02-05T08:49:38.392Z,13.32
2023-02-05T08:53:40.942Z,18.55
2023-02-05T08:57:42.464Z,13.20
2023-02-05T09:01:44.377Z,21.17
2023-02-05T09:05:46.136Z,10.70
2023-02-05T09:09:49.322Z,15.63
2023-02-05T09:13:51.170Z,14.27
2023-02-05T09:17:52.890Z,10.40
2023-02-05T09:21:54.411Z,16.42
2023-02-05T09:25:58.836Z,17.17
2023-02-05T09:30:00.352Z,17.58
2023-02-05T09:34:03.652Z,17.52
2023-02-05T09:38:05.713Z,15.65
2023-02-05T09:42:22.380Z,13.20
2023-02-05T09:46:28.836Z,15.00
2023-02-05T09:50:30.548Z,19.83
2023-02-05T09:54:53.884Z,12.43
2023-02-05T09:58:56.722Z,16.85
2023-02-05T10:03:02.965Z,14.95
2023-02-05T10:07:26.630Z,17.45
2023-02-05T10:11:46.437Z,18.55
2023-02-05T10:15:47.903Z,16.83
2023-02-05T10:20:13.378Z,16.38
2023-02-05T10:24:40.954Z,23.00
2023-02-05T10:28:57.791Z,13.07
2023-02-05T10:33:01.077Z,14.95
2023-02-05T10:37:05.121Z,13.63
2023-02-05T10:41:32.608Z,19.48
2023-02-05T10:45:34.871Z,13.45
2023-02-05T10:49:56.027Z,12.13
2023-02-05T10:54:00.009Z,17.83
2023-02-05T10:58:17.469Z,15.55
2023-02-05T11:06:22.045Z,13.68
2023-02-05T11:10:31.268Z,14.82
2023-02-05T11:36:39.711Z,16.60
2023-02-05T11:40:42.648Z,13.35
2023-02-05T11:44:53.887Z,14.18
2023-02-05T11:49:00.943Z,22.42
2023-02-05T11:53:09.420Z,16.17
2023-02-05T11:57:14.696Z,14.15
2023-02-05T12:01:29.271Z,21.52
2023-02-05T12:05:38.002Z,15.68
2023-02-05T12:09:44.265Z,14.00
2023-02-05T12:13:48.916Z,16.20
2023-02-05T12:18:10.728Z,12.45
2023-02-05T12:22:26.613Z,13.02
2023-02-05T12:26:36.658Z,14.98
2023-02-05T12:30:44.534Z,14.52
2023-02-05T12:34:58.906Z,16.85
2023-02-05T12:39:22.284Z,13.70
2023-02-05T12:43:40.867Z,13.30
2023-02-05T12:48:20.619Z,14.50
2023-02-05T12:52:48.061Z,13.43
2023-02-05T13:00:59.979Z,14.52
2023-02-05T13:05:37.516Z,16.23
2023-02-05T13:09:44.221Z,12.23
2023-02-05T13:13:55.994Z,16.40
2023-02-05T13:18:01.831Z,11.27
2023-02-05T13:22:31.266Z,10.32
2023-02-05T13:26:59.480Z,12.50
2023-02-05T13:31:03.547Z,7.63
2023-02-05T13:35:12.351Z,8.93
2023-02-05T13:39:34.223Z,10.02
2023-02-05T13:44:13.617Z,6.97
2023-02-05T13:49:16.970Z,8.82
2023-02-05T13:53:27.545Z,9.32
2023-02-05T13:57:56.704Z,7.60
2023-02-05T14:02:00.438Z,6.63
2023-02-05T14:06:17.081Z,7.63
2023-02-05T14:10:31.935Z,9.77
2023-02-05T14:14:42.218Z,7.30
2023-02-05T14:18:49.354Z,6.88
2023-02-05T14:22:55.705Z,13.77
2023-02-05T14:27:00.802Z,7.35
2023-02-05T14:31:07.816Z,6.72
2023-02-05T14:35:38.669Z,6.82
2023-02-05T14:39:40.443Z,7.25
2023-02-05T14:43:46.580Z,15.20
2023-02-05T14:47:48.189Z,8.45
2023-02-05T14:51:53.251Z,9.40
2023-02-05T14:55:56.783Z,13.00
2023-02-05T15:00:00.921Z,8.32
2023-02-05T15:04:04.172Z,6.88
2023-02-05T15:08:11.264Z,10.68
2023-02-05T15:12:41.881Z,13.88
2023-02-05T15:16:43.361Z,9.65
2023-02-05T15:20:47.647Z,9.80
2023-02-05T15:24:49.691Z,10.45
2023-02-05T15:28:57.977Z,9.23
2023-02-05T15:33:04.117Z,8.20
2023-02-05T15:37:16.244Z,8.00
2023-02-05T15:41:20.417Z,7.10
2023-02-05T15:45:40.335Z,7.40
2023-02-05T15:49:46.481Z,8.35
2023-02-05T15:53:49.833Z,10.43
2023-02-05T15:58:14.213Z,10.70
2023-02-05T16:02:33.620Z,9.35
2023-02-05T16:06:37.166Z,12.13
2023-02-05T16:10:39.041Z,12.70
2023-02-05T16:14:40.799Z,10.43
2023-02-05T16:18:56.976Z,12.30
2023-02-05T16:23:02.789Z,9.40
2023-02-05T16:27:18.095Z,17.40
2023-02-05T16:31:22.688Z,10.65
2023-02-05T16:35:30.117Z,11.00
2023-02-05T16:39:45.477Z,12.75
2023-02-05T16:43:47.130Z,10.48
2023-02-05T16:48:37.911Z,11.70
2023-02-05T16:52:40.729Z,13.30
2023-02-05T16:56:56.190Z,14.30
2023-02-05T17:01:00.007Z,17.73
2023-02-05T17:05:03.024Z,13.85
2023-02-05T17:09:06.153Z,12.70
2023-02-05T17:13:36.437Z,11.32
2023-02-05T17:17:53.641Z,12.55
2023-02-05T17:22:18.305Z,17.65
2023-02-05T17:26:20.684Z,12.77
2023-02-05T17:30:22.291Z,13.43
2023-02-05T17:34:23.756Z,18.40
2023-02-05T17:38:25.495Z,16.83
2023-02-05T17:42:27.172Z,15.77
2023-02-05T17:46:28.937Z,10.60
2023-02-05T17:50:32.023Z,14.07
2023-02-05T17:54:34.231Z,17.00
2023-02-05T17:58:36.379Z,14.18
2023-02-05T18:02:38.415Z,16.33
2023-02-05T18:06:42.404Z,14.63
2023-02-05T18:10:44.020Z,20.83
2023-02-05T18:14:45.532Z,20.98
2023-02-05T18:18:47.729Z,21.02
2023-02-05T18:22:50.529Z,21.85
2023-02-05T18:26:53.788Z,22.48
2023-02-05T18:31:04.721Z,24.92
2023-02-05T18:35:06.768Z,23.63
2023-02-05T18:39:12.299Z,26.80
2023-02-05T18:43:13.880Z,25.80
2023-02-05T18:47:17.656Z,29.20
2023-02-05T18:51:24.053Z,26.20
2023-02-05T18:55:35.186Z,22.83
2023-02-05T18:59:37.942Z,20.98
2023-02-05T19:03:41.512Z,13.38
2023-02-05T19:07:45.028Z,18.65
2023-02-05T19:11:46.574Z,14.65
2023-02-05T19:15:48.450Z,11.02
2023-02-05T19:19:52.077Z,9.70
2023-02-05T19:23:55.581Z,15.88
2023-02-05T19:27:57.147Z,22.80
2023-02-05T19:31:58.814Z,13.55
2023-02-05T19:36:01.431Z,14.00
2023-02-05T19:40:03.632Z,15.43
2023-02-05T19:44:07.761Z,14.80
2023-02-05T19:48:09.420Z,14.57
2023-02-05T19:52:11.044Z,17.58
2023-02-05T19:56:17.677Z,18.30
2023-02-05T20:00:21.639Z,17.80
2023-02-05T20:04:25.994Z,17.17
2023-02-05T20:08:29.868Z,18.75
2023-02-05T20:12:31.934Z,18.88
2023-02-05T20:16:34.135Z,18.88
2023-02-05T20:20:40.334Z,18.17
2023-02-05T20:24:41.911Z,18.60
2023-02-05T20:29:01.939Z,16.00
2023-02-05T20:33:03.621Z,18.40
2023-02-05T20:37:09.609Z,16.35
2023-02-05T20:41:17.505Z,14.38
2023-02-05T20:45:22.535Z,12.40
2023-02-05T20:49:24.515Z,10.50
2023-02-05T20:53:26.168Z,11.60
2023-02-05T20:57:27.672Z,13.32
2023-02-05T21:01:29.853Z,16.45
2023-02-05T21:05:31.973Z,18.13
2023-02-05T21:09:33.459Z,21.30
2023-02-05T21:13:35.926Z,17.92
2023-02-05T21:17:38.077Z,15.80
2023-02-05T21:21:43.068Z,15.00
2023-02-05T21:25:45.122Z,16.98
2023-02-05T21:29:46.987Z,19.67
2023-02-05T21:33:48.925Z,15.93
2023-02-05T21:37:50.420Z,19.17
2023-02-05T21:41:57.867Z,19.35
2023-02-05T21:50:06.205Z,21.67
2023-02-05T21:54:08.076Z,22.20
2023-02-05T21:58:09.541Z,21.90
2023-02-05T22:02:11.584Z,24.88
2023-02-05T22:06:13.430Z,20.95
2023-02-05T22:10:15.699Z,21.90
2023-02-05T22:14:17.471Z,25.38
2023-02-05T22:18:19.712Z,24.13
2023-02-05T22:22:21.459Z,21.52
2023-02-05T22:26:25.172Z,20.63
2023-02-05T22:30:27.024Z,22.90
2023-02-05T22:34:29.255Z,23.52
2023-02-05T22:38:31.984Z,24.63
2023-02-05T22:42:34.227Z,24.92
2023-02-05T22:46:39.092Z,29.58
2023-02-05T22:50:41.962Z,35.92
2023-02-05T22:54:43.602Z,33.58
2023-02-05T22:58:46.832Z,35.10
2023-02-05T23:02:49.577Z,32.92
2023-02-05T23:06:51.621Z,36.03
2023-02-05T23:10:53.576Z,38.13
2023-02-05T23:14:55.446Z,35.15
2023-02-05T23:19:00.789Z,35.67
2023-02-05T23:23:02.979Z,37.13
2023-02-05T23:27:05.930Z,39.03
2023-02-05T23:31:08.081Z,37.65
2023-02-05T23:35:09.605Z,40.65
2023-02-05T23:39:11.095Z,37.78
2023-02-05T23:43:12.839Z,36.50
2023-02-05T23:47:14.288Z,35.80
2023-02-05T23:51:15.721Z,45.25
2023-02-05T23:55:17.483Z,46.45
2023-02-05T23:59:19.583Z,42.75
